createdAt,value
2017-07-24T00:00:07.146Z,87.40
2017-07-24T00:02:34.674Z,87.20
2017-07-24T00:05:02.191Z,87.30
2017-07-24T00:07:30.166Z,86.70
2017-07-24T00:09:58.091Z,85.60
2017-07-24T00:12:25.595Z,85.60
2017-07-24T00:14:53.527Z,85.70
2017-07-24T00:17:21.034Z,85.70
2017-07-24T00:19:48.543Z,86.00
2017-07-24T00:22:16.066Z,85.50
2017-07-24T00:24:43.570Z,86.10
2017-07-24T00:27:11.073Z,86.40
2017-07-24T00:29:38.601Z,87.30
2017-07-24T00:32:06.107Z,87.40
2017-07-24T00:34:33.610Z,87.50
2017-07-24T00:37:01.142Z,88.30
2017-07-24T00:39:28.642Z,88.40
2017-07-24T00:41:56.152Z,88.60
2017-07-24T00:44:23.686Z,88.70
2017-07-24T00:46:51.591Z,89.00
2017-07-24T00:49:19.102Z,89.00
2017-07-24T00:51:47.027Z,88.70
2017-07-24T00:54:14.530Z,88.70
2017-07-24T00:56:42.435Z,89.10
2017-07-24T00:59:10.311Z,89.10
2017-07-24T01:01:37.815Z,89.20
2017-07-24T01:04:05.322Z,89.00
2017-07-24T01:06:32.843Z,89.10
2017-07-24T01:09:00.374Z,89.50
2017-07-24T01:11:27.895Z,89.90
2017-07-24T01:13:55.403Z,90.60
2017-07-24T01:16:22.931Z,88.90
2017-07-24T01:18:50.437Z,87.70
2017-07-24T01:21:17.943Z,87.80
2017-07-24T01:23:45.479Z,87.70
2017-07-24T01:26:13.395Z,88.10
2017-07-24T01:28:40.942Z,88.10
2017-07-24T01:31:08.474Z,88.40
2017-07-24T01:33:36.414Z,88.30
2017-07-24T01:36:03.943Z,88.30
2017-07-24T01:38:31.482Z,88.10
2017-07-24T01:40:58.995Z,88.30
2017-07-24T01:43:26.582Z,88.60
2017-07-24T01:45:54.614Z,88.90
2017-07-24T01:48:22.123Z,88.90
2017-07-24T01:50:49.631Z,88.80
2017-07-24T01:53:17.156Z,89.00
2017-07-24T01:55:44.670Z,88.60
2017-07-24T01:58:12.170Z,88.90
2017-07-24T02:00:39.699Z,88.80
2017-07-24T02:03:07.201Z,89.10
2017-07-24T02:05:34.774Z,89.10
2017-07-24T02:08:02.307Z,89.30
2017-07-24T02:10:29.810Z,89.70
2017-07-24T02:12:57.310Z,89.90
2017-07-24T02:15:25.230Z,90.10
2017-07-24T02:17:52.738Z,90.10
2017-07-24T02:20:20.246Z,90.50
2017-07-24T02:22:47.777Z,90.60
2017-07-24T02:25:15.322Z,90.50
2017-07-24T02:27:43.220Z,90.10
2017-07-24T02:30:10.751Z,90.10
2017-07-24T02:32:38.659Z,89.80
2017-07-24T02:35:06.222Z,89.80
2017-07-24T02:37:33.850Z,89.50
2017-07-24T02:40:01.366Z,89.40
2017-07-24T02:42:28.871Z,89.80
2017-07-24T02:44:56.402Z,90.30
2017-07-24T02:47:23.911Z,90.40
2017-07-24T02:49:51.423Z,90.70
2017-07-24T02:52:18.962Z,90.90
2017-07-24T02:54:46.482Z,91.10
2017-07-24T02:57:13.986Z,91.50
2017-07-24T02:59:41.531Z,91.60
2017-07-24T03:02:09.067Z,92.00
2017-07-24T03:04:36.582Z,91.90
2017-07-24T03:07:04.247Z,91.80
2017-07-24T03:09:31.787Z,92.00
2017-07-24T03:11:59.301Z,91.80
2017-07-24T03:14:26.862Z,91.30
2017-07-24T03:16:54.421Z,91.10
2017-07-24T03:19:21.926Z,90.70
2017-07-24T03:21:49.472Z,90.90
2017-07-24T03:24:16.983Z,91.00
2017-07-24T03:26:44.499Z,90.50
2017-07-24T03:29:12.048Z,90.80
2017-07-24T03:31:39.611Z,90.30
2017-07-24T03:34:07.121Z,90.40
2017-07-24T03:36:34.666Z,90.90
2017-07-24T03:39:02.189Z,91.00
2017-07-24T03:41:29.940Z,90.70
2017-07-24T03:43:57.566Z,90.40
2017-07-24T03:46:25.088Z,89.90
2017-07-24T03:48:52.612Z,90.00
2017-07-24T03:51:20.147Z,90.10
2017-07-24T03:53:47.659Z,89.90
2017-07-24T03:56:15.166Z,89.50
2017-07-24T03:58:42.698Z,89.80
2017-07-24T04:01:10.206Z,89.20
2017-07-24T04:03:38.111Z,89.30
2017-07-24T04:06:05.635Z,89.30
2017-07-24T04:08:33.495Z,89.00
2017-07-24T04:11:01.035Z,89.00
2017-07-24T04:13:28.571Z,89.50
2017-07-24T04:15:56.079Z,89.30
2017-07-24T04:18:23.980Z,89.40
2017-07-24T04:20:51.511Z,89.40
2017-07-24T04:23:19.020Z,88.30
2017-07-24T04:25:46.530Z,89.30
2017-07-24T04:28:14.454Z,87.70
2017-07-24T04:30:41.964Z,87.70
2017-07-24T04:33:09.476Z,88.00
2017-07-24T04:35:37.011Z,87.30
2017-07-24T04:38:04.518Z,87.30
2017-07-24T04:40:32.027Z,87.60
2017-07-24T04:42:59.554Z,87.80
2017-07-24T04:45:27.459Z,86.20
2017-07-24T04:47:54.977Z,86.20
2017-07-24T04:50:22.903Z,86.10
2017-07-24T04:52:50.409Z,86.00
2017-07-24T04:55:17.907Z,86.20
2017-07-24T04:57:45.434Z,86.30
2017-07-24T05:00:13.325Z,85.90
2017-07-24T05:02:40.827Z,85.90
2017-07-24T05:05:08.384Z,86.30
2017-07-24T05:07:35.916Z,86.50
2017-07-24T05:10:03.430Z,86.40
2017-07-24T05:12:30.943Z,86.40
2017-07-24T05:14:58.475Z,86.70
2017-07-24T05:17:26.374Z,86.40
2017-07-24T05:19:53.874Z,86.40
2017-07-24T05:22:21.401Z,86.40
2017-07-24T05:24:48.897Z,87.00
2017-07-24T05:27:16.411Z,87.60
2017-07-24T05:29:43.938Z,87.40
2017-07-24T05:32:11.842Z,87.70
2017-07-24T05:34:39.351Z,87.70
2017-07-24T05:37:06.877Z,87.20
2017-07-24T05:39:34.378Z,87.60
2017-07-24T05:42:02.285Z,87.40
2017-07-24T05:44:29.815Z,87.40
2017-07-24T05:46:57.709Z,87.10
2017-07-24T05:49:25.210Z,87.10
2017-07-24T05:51:52.783Z,86.30
2017-07-24T05:54:20.295Z,85.10
2017-07-24T05:56:47.802Z,85.50
2017-07-24T05:59:15.337Z,84.50
2017-07-24T06:01:42.838Z,85.30
2017-07-24T06:04:10.744Z,86.20
2017-07-24T06:06:38.274Z,86.30
2017-07-24T06:09:05.771Z,86.80
2017-07-24T06:11:33.279Z,85.20
2017-07-24T06:14:00.812Z,84.90
2017-07-24T06:16:28.344Z,84.30
2017-07-24T06:18:55.846Z,84.00
2017-07-24T06:21:23.464Z,82.00
2017-07-24T06:23:50.970Z,82.30
2017-07-24T06:26:18.475Z,82.80
2017-07-24T06:28:46.007Z,82.80
2017-07-24T06:31:14.026Z,82.30
2017-07-24T06:33:41.531Z,82.30
2017-07-24T06:36:09.059Z,82.00
2017-07-24T06:38:36.558Z,82.30
2017-07-24T06:41:04.062Z,81.70
2017-07-24T06:43:31.598Z,80.10
2017-07-24T06:45:59.111Z,81.20
2017-07-24T06:48:26.614Z,81.30
2017-07-24T06:50:54.539Z,81.10
2017-07-24T06:53:22.043Z,81.10
2017-07-24T06:55:49.941Z,80.20
2017-07-24T06:58:17.467Z,80.20
2017-07-24T07:00:45.371Z,81.60
2017-07-24T07:03:12.870Z,81.60
2017-07-24T07:05:40.398Z,81.00
2017-07-24T07:08:07.898Z,81.40
2017-07-24T07:10:36.230Z,81.70
2017-07-24T07:13:03.770Z,80.40
2017-07-24T07:15:31.275Z,81.20
2017-07-24T07:17:58.770Z,80.30
2017-07-24T07:20:26.299Z,79.80
2017-07-24T07:22:53.802Z,80.10
2017-07-24T07:25:21.703Z,81.20
2017-07-24T07:27:49.232Z,81.20
2017-07-24T07:30:16.744Z,81.40
2017-07-24T07:32:44.243Z,81.50
2017-07-24T07:35:12.118Z,80.90
2017-07-24T07:37:39.624Z,82.30
2017-07-24T07:40:07.216Z,82.30
2017-07-24T07:42:34.748Z,82.90
2017-07-24T07:45:02.253Z,82.90
2017-07-24T07:47:29.758Z,82.80
2017-07-24T07:49:57.290Z,82.80
2017-07-24T07:52:24.790Z,83.40
2017-07-24T07:54:52.289Z,83.50
2017-07-24T07:57:20.206Z,82.70
2017-07-24T07:59:47.707Z,82.70
2017-07-24T08:02:15.211Z,83.10
2017-07-24T08:04:42.739Z,83.10
2017-07-24T08:07:10.634Z,83.50
2017-07-24T08:09:38.140Z,83.50
2017-07-24T08:12:05.667Z,88.30
2017-07-24T08:14:33.166Z,93.20
2017-07-24T08:17:00.666Z,94.60
2017-07-24T08:19:28.187Z,96.60
2017-07-24T08:21:55.690Z,95.30
2017-07-24T08:24:23.201Z,96.20
2017-07-24T08:26:51.155Z,94.60
2017-07-24T08:29:18.667Z,94.60
2017-07-24T08:31:46.175Z,94.50
2017-07-24T08:34:13.722Z,93.00
2017-07-24T08:36:41.242Z,90.40
2017-07-24T08:39:09.139Z,82.20
2017-07-24T08:41:36.677Z,82.10
2017-07-24T08:44:04.571Z,80.50
2017-07-24T08:46:32.082Z,80.50
2017-07-24T08:48:59.606Z,78.70
2017-07-24T08:51:27.106Z,79.80
2017-07-24T08:53:54.611Z,79.00
2017-07-24T08:56:22.146Z,78.60
2017-07-24T08:58:49.666Z,79.00
2017-07-24T09:01:17.163Z,81.00
2017-07-24T09:03:44.693Z,79.80
2017-07-24T09:06:12.195Z,78.50
2017-07-24T09:08:39.713Z,79.20
2017-07-24T09:11:07.270Z,80.40
2017-07-24T09:13:34.783Z,81.90
2017-07-24T09:16:02.301Z,80.20
2017-07-24T09:18:29.846Z,79.60
2017-07-24T09:20:57.350Z,78.10
2017-07-24T09:23:24.888Z,77.20
2017-07-24T09:25:52.424Z,78.90
2017-07-24T09:28:19.927Z,76.20
2017-07-24T09:30:47.822Z,77.30
2017-07-24T09:33:15.347Z,77.20
2017-07-24T09:35:43.252Z,76.20
2017-07-24T09:38:10.758Z,76.20
2017-07-24T09:40:38.287Z,74.40
2017-07-24T09:43:05.781Z,74.40
2017-07-24T09:45:33.278Z,77.40
2017-07-24T09:48:00.806Z,74.80
2017-07-24T09:50:28.308Z,75.00
2017-07-24T09:52:55.831Z,75.70
2017-07-24T09:55:23.754Z,78.10
2017-07-24T09:57:51.259Z,78.10
2017-07-24T10:00:18.767Z,78.10
2017-07-24T10:02:46.290Z,78.60
2017-07-24T10:05:14.188Z,78.00
2017-07-24T10:07:41.693Z,78.00
2017-07-24T10:10:09.219Z,77.20
2017-07-24T10:12:36.718Z,75.60
2017-07-24T10:15:04.228Z,75.80
2017-07-24T10:17:31.751Z,76.70
2017-07-24T10:19:59.652Z,76.30
2017-07-24T10:22:27.154Z,76.20
2017-07-24T10:24:54.683Z,76.70
2017-07-24T10:27:22.182Z,78.70
2017-07-24T10:29:49.686Z,77.70
2017-07-24T10:32:17.214Z,77.70
2017-07-24T10:34:44.719Z,78.10
2017-07-24T10:37:12.221Z,75.80
2017-07-24T10:39:39.752Z,74.70
2017-07-24T10:42:07.260Z,74.80
2017-07-24T10:44:34.768Z,75.90
2017-07-24T10:47:02.295Z,73.30
2017-07-24T10:49:29.803Z,74.50
2017-07-24T10:51:57.303Z,77.40
2017-07-24T10:54:25.231Z,77.30
2017-07-24T10:56:52.742Z,77.30
2017-07-24T10:59:20.242Z,76.40
2017-07-24T11:01:47.779Z,73.70
2017-07-24T11:04:15.278Z,75.30
2017-07-24T11:06:42.778Z,71.00
2017-07-24T11:09:10.307Z,71.50
2017-07-24T11:11:37.815Z,71.20
2017-07-24T11:14:05.318Z,70.90
2017-07-24T11:16:32.846Z,73.80
2017-07-24T11:19:00.346Z,74.70
2017-07-24T11:21:27.852Z,74.20
2017-07-24T11:23:55.391Z,75.10
2017-07-24T11:26:23.294Z,75.00
2017-07-24T11:28:50.816Z,74.90
2017-07-24T11:31:19.132Z,74.60
2017-07-24T11:33:46.638Z,74.60
2017-07-24T11:36:14.143Z,75.10
2017-07-24T11:38:41.674Z,76.30
2017-07-24T11:41:09.183Z,75.20
2017-07-24T11:43:36.683Z,73.90
2017-07-24T11:46:04.206Z,73.40
2017-07-24T11:48:45.046Z,72.50
2017-07-24T11:51:12.614Z,74.60
2017-07-24T11:53:40.122Z,73.70
2017-07-24T11:56:07.620Z,73.10
2017-07-24T11:58:35.150Z,74.00
2017-07-24T12:01:02.652Z,72.20
2017-07-24T12:03:30.168Z,71.20
2017-07-24T12:05:57.704Z,71.10
2017-07-24T12:08:25.206Z,71.70
2017-07-24T12:10:53.111Z,74.80
2017-07-24T12:13:20.644Z,74.80
2017-07-24T12:15:48.543Z,71.70
2017-07-24T12:18:16.042Z,71.70
2017-07-24T12:20:43.570Z,70.60
2017-07-24T12:23:11.071Z,69.00
2017-07-24T12:25:38.575Z,69.10
2017-07-24T12:28:06.103Z,68.10
2017-07-24T12:30:34.003Z,65.00
2017-07-24T12:33:01.512Z,65.00
2017-07-24T12:35:29.034Z,66.10
2017-07-24T12:37:56.538Z,65.80
2017-07-24T12:40:24.043Z,65.70
2017-07-24T12:42:51.572Z,67.50
2017-07-24T12:45:19.492Z,63.80
2017-07-24T12:47:46.990Z,63.80
2017-07-24T12:50:14.514Z,66.40
2017-07-24T12:52:42.014Z,67.70
2017-07-24T12:55:09.515Z,68.40
2017-07-24T12:57:37.047Z,69.80
2017-07-24T13:00:04.556Z,70.20
2017-07-24T13:02:32.067Z,68.90
2017-07-24T13:04:59.986Z,67.90
2017-07-24T13:07:27.494Z,67.90
2017-07-24T13:09:55.395Z,68.10
2017-07-24T13:12:22.931Z,68.10
2017-07-24T13:14:50.438Z,67.70
2017-07-24T13:17:17.943Z,68.20
2017-07-24T13:19:45.471Z,68.70
2017-07-24T13:22:12.978Z,67.10
2017-07-24T13:24:40.483Z,66.10
2017-07-24T13:27:08.006Z,65.90
2017-07-24T13:29:35.511Z,66.90
2017-07-24T13:32:03.011Z,67.40
2017-07-24T13:34:30.542Z,68.10
2017-07-24T13:37:01.971Z,68.20
2017-07-24T13:39:29.479Z,68.20
2017-07-24T13:41:57.398Z,71.10
2017-07-24T13:44:24.899Z,71.10
2017-07-24T13:46:52.798Z,69.50
2017-07-24T13:49:20.326Z,69.50
2017-07-24T13:51:48.222Z,70.20
2017-07-24T13:54:15.717Z,70.20
2017-07-24T13:56:43.238Z,70.10
2017-07-24T13:59:10.747Z,70.10
2017-07-24T14:01:38.272Z,69.70
2017-07-24T14:04:05.798Z,68.00
2017-07-24T14:06:33.694Z,68.70
2017-07-24T14:09:01.194Z,68.70
2017-07-24T14:11:28.715Z,69.90
2017-07-24T14:13:56.218Z,69.10
2017-07-24T14:16:23.710Z,66.70
2017-07-24T14:18:51.669Z,68.40
2017-07-24T14:21:19.176Z,68.40
2017-07-24T14:23:46.695Z,66.40
2017-07-24T14:26:14.291Z,67.40
2017-07-24T14:28:41.821Z,67.50
2017-07-24T14:31:09.715Z,68.50
2017-07-24T14:33:37.239Z,68.40
2017-07-24T14:36:04.782Z,67.30
2017-07-24T14:38:32.330Z,67.90
2017-07-24T14:40:59.835Z,67.40
2017-07-24T14:43:27.754Z,67.70
2017-07-24T14:45:55.249Z,67.70
2017-07-24T14:48:22.751Z,67.90
2017-07-24T14:50:50.291Z,68.50
2017-07-24T14:53:18.187Z,69.30
2017-07-24T14:55:45.682Z,69.30
2017-07-24T14:58:13.207Z,68.10
2017-07-24T15:00:40.731Z,70.60
2017-07-24T15:03:08.622Z,74.60
2017-07-24T15:05:36.125Z,74.60
2017-07-24T15:08:03.648Z,74.80
2017-07-24T15:10:31.155Z,72.50
2017-07-24T15:12:58.657Z,76.70
2017-07-24T15:15:26.187Z,74.50
2017-07-24T15:17:53.687Z,72.90
2017-07-24T15:20:21.222Z,69.80
2017-07-24T15:22:48.754Z,70.20
2017-07-24T15:25:19.286Z,72.20
2017-07-24T15:27:46.804Z,72.00
2017-07-24T15:30:14.351Z,73.00
2017-07-24T15:32:41.890Z,71.50
2017-07-24T15:35:09.394Z,71.30
2017-07-24T15:37:36.922Z,72.00
2017-07-24T15:40:04.455Z,74.00
2017-07-24T15:42:31.979Z,73.40
2017-07-24T15:44:59.487Z,74.30
2017-07-24T15:47:27.443Z,75.70
2017-07-24T15:49:54.943Z,75.70
2017-07-24T15:52:22.447Z,74.90
2017-07-24T15:54:49.987Z,76.60
2017-07-24T15:57:17.508Z,76.20
2017-07-24T15:59:45.006Z,75.90
2017-07-24T16:02:12.551Z,74.10
2017-07-24T16:04:40.057Z,75.30
2017-07-24T16:07:07.559Z,74.60
2017-07-24T16:09:35.079Z,75.30
2017-07-24T16:12:02.578Z,75.30
2017-07-24T16:14:30.078Z,76.00
2017-07-24T16:16:57.602Z,75.90
2017-07-24T16:19:25.107Z,78.90
2017-07-24T16:21:52.610Z,79.60
2017-07-24T16:24:20.139Z,82.60
2017-07-24T16:26:47.662Z,82.10
2017-07-24T16:29:15.167Z,82.50
2017-07-24T16:31:42.711Z,81.10
2017-07-24T16:34:10.211Z,81.40
2017-07-24T16:36:37.715Z,80.70
2017-07-24T16:39:05.234Z,78.00
2017-07-24T16:41:32.730Z,71.00
2017-07-24T16:44:00.231Z,65.30
2017-07-24T16:46:28.159Z,73.80
2017-07-24T16:48:55.662Z,73.90
2017-07-24T16:51:23.170Z,75.90
2017-07-24T16:53:50.725Z,77.20
2017-07-24T16:56:18.225Z,77.40
2017-07-24T16:58:45.727Z,77.90
2017-07-24T17:01:15.162Z,80.10
2017-07-24T17:03:43.102Z,81.40
2017-07-24T17:06:10.602Z,81.40
2017-07-24T17:08:38.126Z,81.60
2017-07-24T17:11:05.639Z,81.80
2017-07-24T17:13:33.138Z,80.90
2017-07-24T17:16:00.671Z,79.80
2017-07-24T17:18:28.179Z,78.20
2017-07-24T17:20:55.707Z,78.80
2017-07-24T17:23:23.622Z,77.80
2017-07-24T17:25:51.146Z,77.80
2017-07-24T17:28:18.658Z,78.10
2017-07-24T17:30:46.300Z,78.70
2017-07-24T17:33:13.810Z,78.60
2017-07-24T17:35:41.314Z,78.70
2017-07-24T17:38:08.839Z,80.30
2017-07-24T17:40:36.758Z,82.40
2017-07-24T17:43:04.263Z,82.40
2017-07-24T17:45:32.187Z,84.70
2017-07-24T17:47:59.687Z,84.70
2017-07-24T17:50:27.198Z,88.30
2017-07-24T17:52:54.722Z,87.10
2017-07-24T17:55:23.338Z,92.20
2017-07-24T17:57:50.866Z,92.20
2017-07-24T18:00:18.798Z,95.30
2017-07-24T18:02:46.294Z,95.30
2017-07-24T18:05:13.803Z,93.50
2017-07-24T18:07:41.345Z,93.70
2017-07-24T18:10:08.875Z,97.10
2017-07-24T18:12:36.810Z,96.50
2017-07-24T18:15:04.360Z,96.50
2017-07-24T18:17:31.892Z,98.00
2017-07-24T18:19:59.452Z,95.20
2017-07-24T18:22:26.982Z,94.40
2017-07-24T18:24:54.521Z,96.10
2017-07-24T18:27:22.538Z,96.00
2017-07-24T18:29:50.089Z,96.20
2017-07-24T18:32:17.602Z,94.70
2017-07-24T18:34:45.135Z,95.10
2017-07-24T18:37:12.664Z,92.20
2017-07-24T18:39:40.226Z,91.90
2017-07-24T18:42:07.739Z,95.50
2017-07-24T18:44:35.247Z,93.70
2017-07-24T18:47:02.789Z,95.90
2017-07-24T18:49:30.711Z,95.30
2017-07-24T18:51:58.232Z,95.30
2017-07-24T18:54:25.770Z,94.60
2017-07-24T18:56:53.284Z,95.40
2017-07-24T18:59:20.814Z,95.40
2017-07-24T19:01:48.355Z,93.80
2017-07-24T19:04:16.258Z,94.70
2017-07-24T19:06:43.781Z,94.70
2017-07-24T19:09:11.331Z,95.00
2017-07-24T19:11:38.867Z,95.40
2017-07-24T19:14:06.391Z,94.90
2017-07-24T19:16:33.969Z,94.50
2017-07-24T19:19:01.518Z,95.10
2017-07-24T19:21:29.057Z,94.90
2017-07-24T19:23:56.667Z,93.60
2017-07-24T19:26:24.234Z,93.30
2017-07-24T19:28:51.749Z,94.00
2017-07-24T19:31:19.712Z,93.70
2017-07-24T19:33:47.643Z,91.00
2017-07-24T19:36:15.150Z,91.00
2017-07-24T19:38:42.711Z,92.60
2017-07-24T19:41:10.619Z,93.50
2017-07-24T19:43:38.145Z,93.50
2017-07-24T19:46:05.716Z,94.60
2017-07-24T19:48:33.274Z,94.30
2017-07-24T19:51:00.814Z,94.10
2017-07-24T19:53:28.812Z,93.40
2017-07-24T19:55:56.332Z,93.30
2017-07-24T19:58:23.921Z,93.10
2017-07-24T20:00:51.466Z,94.20
2017-07-24T20:03:19.399Z,94.40
2017-07-24T20:05:46.922Z,94.40
2017-07-24T20:08:14.452Z,93.90
2017-07-24T20:10:42.363Z,94.40
2017-07-24T20:13:09.876Z,94.40
2017-07-24T20:15:37.402Z,93.70
2017-07-24T20:18:04.911Z,94.40
2017-07-24T20:20:32.816Z,93.80
2017-07-24T20:23:00.351Z,93.70
2017-07-24T20:25:27.855Z,95.20
2017-07-24T20:27:55.365Z,93.80
2017-07-24T20:30:22.899Z,93.90
2017-07-24T20:32:50.403Z,93.50
2017-07-24T20:35:17.911Z,93.40
2017-07-24T20:37:45.446Z,93.70
2017-07-24T20:40:12.961Z,93.70
2017-07-24T20:42:40.859Z,92.70
2017-07-24T20:45:08.396Z,92.70
2017-07-24T20:47:35.911Z,93.10
2017-07-24T20:50:03.382Z,92.80
2017-07-24T20:52:31.349Z,92.90
2017-07-24T20:54:58.855Z,92.80
2017-07-24T20:57:26.371Z,91.10
2017-07-24T20:59:53.918Z,92.00
2017-07-24T21:02:21.422Z,90.70
2017-07-24T21:04:49.324Z,91.70
2017-07-24T21:07:16.851Z,91.70
2017-07-24T21:09:44.750Z,91.30
2017-07-24T21:12:12.254Z,91.30
2017-07-24T21:14:39.791Z,90.30
2017-07-24T21:17:07.299Z,91.80
2017-07-24T21:19:35.195Z,91.00
2017-07-24T21:22:02.727Z,90.90
2017-07-24T21:24:30.234Z,91.50
2017-07-24T21:26:57.744Z,91.90
2017-07-24T21:29:25.279Z,93.00
2017-07-24T21:31:52.786Z,93.50
2017-07-24T21:34:20.298Z,93.10
2017-07-24T21:36:47.830Z,94.00
2017-07-24T21:39:15.339Z,92.40
2017-07-24T21:41:43.244Z,93.60
2017-07-24T21:44:10.779Z,93.60
2017-07-24T21:46:38.287Z,93.60
2017-07-24T21:49:05.794Z,94.30
2017-07-24T21:51:33.713Z,93.80
2017-07-24T21:54:01.218Z,93.80
2017-07-24T21:56:29.124Z,94.20
2017-07-24T21:58:56.654Z,94.20
2017-07-24T22:01:24.545Z,94.50
2017-07-24T22:03:52.059Z,94.40
2017-07-24T22:06:19.599Z,94.10
2017-07-24T22:08:47.122Z,95.00
2017-07-24T22:11:14.661Z,94.90
2017-07-24T22:13:42.543Z,94.40
2017-07-24T22:16:10.118Z,94.80
2017-07-24T22:18:38.013Z,96.10
2017-07-24T22:21:05.937Z,96.90
2017-07-24T22:23:33.836Z,98.80
2017-07-24T22:26:01.338Z,98.80
2017-07-24T22:28:28.904Z,99.70
2017-07-24T22:30:56.419Z,99.90
2017-07-24T22:33:23.927Z,99.90
2017-07-24T22:35:51.454Z,99.90
2017-07-24T22:38:18.963Z,99.90
2017-07-24T22:40:46.868Z,99.90
2017-07-24T22:43:14.395Z,99.90
2017-07-24T22:45:41.911Z,99.90
2017-07-24T22:48:09.419Z,99.90
2017-07-24T22:50:36.948Z,99.90
2017-07-24T22:53:04.451Z,99.90
2017-07-24T22:55:31.962Z,99.90
2017-07-24T22:57:59.498Z,99.90
2017-07-24T23:00:27.006Z,99.90
2017-07-24T23:02:54.907Z,99.90
2017-07-24T23:05:22.443Z,99.90
2017-07-24T23:07:50.344Z,99.90
2017-07-24T23:10:18.010Z,99.90
2017-07-24T23:12:45.543Z,99.90
2017-07-24T23:15:13.042Z,99.90
2017-07-24T23:17:40.553Z,99.90
2017-07-24T23:20:08.479Z,99.90
2017-07-24T23:22:35.991Z,99.90
2017-07-24T23:25:03.499Z,99.90
2017-07-24T23:27:31.032Z,99.90
2017-07-24T23:29:58.551Z,99.90
2017-07-24T23:32:26.071Z,99.90
2017-07-24T23:34:53.623Z,99.90
2017-07-24T23:37:21.127Z,99.90
2017-07-24T23:39:48.643Z,99.90
2017-07-24T23:42:16.173Z,99.90
2017-07-24T23:44:43.680Z,99.90
2017-07-24T23:47:11.210Z,99.90
2017-07-24T23:49:38.742Z,99.90
2017-07-24T23:52:06.652Z,99.90
2017-07-24T23:54:34.154Z,99.90
2017-07-24T23:57:01.699Z,99.90
2017-07-24T23:59:29.254Z,99.90
